Time;durP1;ratioP1;P1;durP2;ratioP2;P2;SDS_P1;SDS_P2;PMS_P1;PMS_P2;Temp;Humidity;BMP_temperature;BMP_pressure;BME280_temperature;BME280_humidity;BME280_pressure;Samples;Min_cycle;Max_cycle;Signal;HPM_P1;HPM_P2
2021/06/29 00:00:19;;;;;;;;;;;19.80;99.90;;;;;;5066453;28;20039;-52
2021/06/29 00:02:45;;;;;;;;;;;19.70;99.90;;;;;;5075766;28;20032;-53
2021/06/29 00:05:11;;;;;;;;;;;19.70;99.90;;;;;;5083319;28;19993;-51
2021/06/29 00:07:36;;;;;;;;;;;19.60;99.90;;;;;;5079907;28;20083;-51
2021/06/29 00:10:03;;;;;;;;;;;19.50;99.90;;;;;;5087231;28;19984;-52
2021/06/29 00:12:29;;;;;;;;;;;19.50;99.90;;;;;;5085653;28;20044;-52
2021/06/29 00:14:54;;;;;;;;;;;19.50;99.90;;;;;;5077945;28;20486;-52
2021/06/29 00:17:21;;;;;;;;;;;19.50;99.90;;;;;;5084128;28;20000;-51
2021/06/29 00:19:47;;;;;;;;;;;19.50;99.90;;;;;;5075605;28;19985;-52
2021/06/29 00:22:13;;;;;;;;;;;19.40;99.90;;;;;;5083005;28;20285;-51
2021/06/29 00:24:39;;;;;;;;;;;19.30;99.90;;;;;;5068623;28;20474;-48
2021/06/29 00:27:05;;;;;;;;;;;19.40;99.90;;;;;;5066995;28;20004;-48
2021/06/29 00:29:31;;;;;;;;;;;19.50;99.90;;;;;;5071115;28;19989;-52
2021/06/29 00:31:56;;;;;;;;;;;19.60;99.90;;;;;;5072997;28;20005;-47
2021/06/29 00:34:22;;;;;;;;;;;19.80;99.90;;;;;;5067280;28;19985;-52
2021/06/29 00:36:47;;;;;;;;;;;19.70;99.90;;;;;;5066831;28;19985;-52
2021/06/29 00:39:13;;;;;;;;;;;19.50;99.90;;;;;;5067475;28;20358;-50
2021/06/29 00:41:38;;;;;;;;;;;19.50;99.90;;;;;;5068142;28;20036;-50
2021/06/29 00:44:04;;;;;;;;;;;19.30;99.90;;;;;;5068556;28;19985;-50
2021/06/29 00:46:30;;;;;;;;;;;19.20;99.90;;;;;;5068369;28;19993;-48
2021/06/29 00:48:55;;;;;;;;;;;19.10;99.90;;;;;;5069755;28;19993;-50
2021/06/29 00:51:22;;;;;;;;;;;19.10;99.90;;;;;;5068322;28;19981;-50
2021/06/29 00:53:48;;;;;;;;;;;19.10;99.90;;;;;;5067955;28;20459;-48
2021/06/29 00:56:14;;;;;;;;;;;19.00;99.90;;;;;;5068876;28;19988;-51
2021/06/29 00:58:46;;;;;;;;;;;19.00;99.90;;;;;;5068572;28;19985;-50
2021/06/29 01:01:13;;;;;;;;;;;19.00;99.90;;;;;;5068930;28;20075;-48
2021/06/29 01:03:40;;;;;;;;;;;19.00;99.90;;;;;;5067926;28;19981;-49
2021/06/29 01:06:06;;;;;;;;;;;19.00;99.90;;;;;;5067932;28;20490;-51
2021/06/29 01:08:32;;;;;;;;;;;19.00;99.90;;;;;;5067956;28;19989;-50
2021/06/29 01:10:58;;;;;;;;;;;19.10;99.90;;;;;;5067647;28;20039;-51
2021/06/29 01:13:31;;;;;;;;;;;19.00;99.90;;;;;;5076906;28;20009;-51
2021/06/29 01:15:58;;;;;;;;;;;19.00;99.90;;;;;;5088185;28;20099;-52
2021/06/29 01:18:23;;;;;;;;;;;19.00;99.90;;;;;;5087340;28;20075;-52
2021/06/29 01:20:49;;;;;;;;;;;19.10;99.90;;;;;;5087340;28;20096;-51
2021/06/29 01:23:18;;;;;;;;;;;19.10;99.90;;;;;;5078573;28;20036;-51
2021/06/29 01:25:45;;;;;;;;;;;19.10;99.90;;;;;;5068223;28;19985;-49
2021/06/29 01:28:27;;;;;;;;;;;19.10;99.90;;;;;;5068114;28;20332;-50
2021/06/29 01:31:09;;;;;;;;;;;19.00;99.90;;;;;;5070796;28;20038;-51
2021/06/29 01:33:34;;;;;;;;;;;19.10;99.90;;;;;;5075536;28;20019;-51
2021/06/29 01:36:00;;;;;;;;;;;19.00;99.90;;;;;;5067526;28;19993;-51
2021/06/29 01:38:26;;;;;;;;;;;19.00;99.90;;;;;;5067623;28;19995;-51
2021/06/29 01:40:52;;;;;;;;;;;19.00;99.90;;;;;;5067347;28;20392;-51
2021/06/29 01:43:27;;;;;;;;;;;18.90;99.90;;;;;;5067449;28;20043;-47
2021/06/29 01:45:55;;;;;;;;;;;18.90;99.90;;;;;;5075315;28;19984;-52
2021/06/29 01:48:26;;;;;;;;;;;19.00;99.90;;;;;;5087565;28;20505;-51
2021/06/29 01:50:53;;;;;;;;;;;19.00;99.90;;;;;;5087406;28;20071;-51
2021/06/29 01:53:18;;;;;;;;;;;18.80;99.90;;;;;;5082424;28;20415;-51
2021/06/29 01:55:44;;;;;;;;;;;18.80;99.90;;;;;;5067440;28;20096;-49
2021/06/29 01:58:11;;;;;;;;;;;18.80;99.90;;;;;;5067781;28;20602;-51
2021/06/29 02:00:37;;;;;;;;;;;18.70;99.90;;;;;;5066646;28;19989;-51
2021/06/29 02:03:03;;;;;;;;;;;18.80;99.90;;;;;;5067361;28;19986;-50
2021/06/29 02:05:29;;;;;;;;;;;18.80;99.90;;;;;;5066748;28;20007;-51
2021/06/29 02:07:55;;;;;;;;;;;18.90;99.90;;;;;;5067123;28;19984;-50
2021/06/29 02:10:21;;;;;;;;;;;18.90;99.90;;;;;;5067272;28;19985;-52
2021/06/29 02:12:47;;;;;;;;;;;19.00;99.90;;;;;;5065854;28;20016;-50
2021/06/29 02:15:13;;;;;;;;;;;19.00;99.90;;;;;;5067455;28;19993;-50
2021/06/29 02:17:39;;;;;;;;;;;18.90;99.90;;;;;;5072931;28;19988;-52
2021/06/29 02:20:06;;;;;;;;;;;18.90;99.90;;;;;;5086968;28;20091;-50
2021/06/29 02:22:32;;;;;;;;;;;18.90;99.90;;;;;;5086956;28;19985;-50
2021/06/29 02:24:57;;;;;;;;;;;19.00;99.90;;;;;;5086904;28;19984;-49
2021/06/29 02:27:23;;;;;;;;;;;18.90;99.90;;;;;;5079950;28;20012;-50
2021/06/29 02:29:49;;;;;;;;;;;19.00;99.90;;;;;;5066741;28;19985;-49
2021/06/29 02:32:15;;;;;;;;;;;19.00;99.90;;;;;;5067120;28;20011;-52
2021/06/29 02:34:41;;;;;;;;;;;19.10;99.90;;;;;;5071023;28;20087;-49
2021/06/29 02:37:06;;;;;;;;;;;19.00;99.90;;;;;;5089792;28;20705;-51
2021/06/29 02:39:32;;;;;;;;;;;19.00;99.90;;;;;;5088898;28;20049;-51
2021/06/29 02:41:57;;;;;;;;;;;19.00;99.90;;;;;;5071035;28;20032;-51
2021/06/29 02:44:23;;;;;;;;;;;19.00;99.90;;;;;;5070843;28;19989;-52
2021/06/29 02:46:49;;;;;;;;;;;19.00;99.90;;;;;;5070466;28;19985;-52
2021/06/29 02:49:14;;;;;;;;;;;19.10;99.90;;;;;;5083524;28;20000;-51
2021/06/29 02:51:41;;;;;;;;;;;19.10;99.90;;;;;;5091421;28;19985;-52
2021/06/29 02:54:06;;;;;;;;;;;19.10;99.90;;;;;;5090968;28;19981;-51
2021/06/29 02:56:38;;;;;;;;;;;19.00;99.90;;;;;;5081786;28;19992;-51
2021/06/29 02:59:05;;;;;;;;;;;19.00;99.90;;;;;;5070619;28;19985;-49
2021/06/29 03:01:30;;;;;;;;;;;19.00;99.90;;;;;;5070350;28;20466;-49
2021/06/29 03:03:56;;;;;;;;;;;19.00;99.90;;;;;;5070310;28;19986;-50
2021/06/29 03:06:22;;;;;;;;;;;18.80;99.90;;;;;;5070499;28;20012;-51
2021/06/29 03:08:47;;;;;;;;;;;18.70;99.90;;;;;;5069912;28;20080;-51
2021/06/29 03:11:13;;;;;;;;;;;18.60;99.90;;;;;;5070563;28;20068;-51
2021/06/29 03:13:38;;;;;;;;;;;18.60;99.90;;;;;;5069808;28;20130;-50
2021/06/29 03:16:06;;;;;;;;;;;18.60;99.90;;;;;;5069240;28;20000;-47
2021/06/29 03:18:31;;;;;;;;;;;18.60;99.90;;;;;;5069583;28;20376;-51
2021/06/29 03:20:57;;;;;;;;;;;18.60;99.90;;;;;;5070107;28;19982;-49
2021/06/29 03:23:23;;;;;;;;;;;18.60;99.90;;;;;;5074706;28;19981;-47
2021/06/29 03:25:49;;;;;;;;;;;18.70;99.90;;;;;;5090306;28;19992;-51
2021/06/29 03:28:16;;;;;;;;;;;18.70;99.90;;;;;;5083945;28;20015;-51
2021/06/29 03:30:42;;;;;;;;;;;18.70;99.90;;;;;;5069164;28;19984;-52
2021/06/29 03:33:07;;;;;;;;;;;18.80;99.90;;;;;;5087480;28;20004;-51
2021/06/29 03:35:33;;;;;;;;;;;18.70;99.90;;;;;;5089874;28;20016;-50
2021/06/29 03:37:58;;;;;;;;;;;18.70;99.90;;;;;;5090055;28;19985;-51
2021/06/29 03:40:24;;;;;;;;;;;18.70;99.90;;;;;;5089383;28;19985;-49
2021/06/29 03:42:50;;;;;;;;;;;18.70;99.90;;;;;;5089982;28;19981;-47
2021/06/29 03:45:15;;;;;;;;;;;18.70;99.90;;;;;;5072027;28;20000;-49
2021/06/29 03:47:41;;;;;;;;;;;18.60;99.90;;;;;;5069199;28;20087;-50
2021/06/29 03:50:06;;;;;;;;;;;18.70;99.90;;;;;;5069929;28;19992;-51
2021/06/29 03:52:32;;;;;;;;;;;18.70;99.90;;;;;;5069258;28;20005;-51
2021/06/29 03:54:58;;;;;;;;;;;18.70;99.90;;;;;;5069414;28;19981;-50
2021/06/29 03:57:24;;;;;;;;;;;18.80;99.90;;;;;;5069707;28;20757;-50
2021/06/29 03:59:49;;;;;;;;;;;19.00;99.90;;;;;;5068229;28;20024;-50
2021/06/29 04:02:15;;;;;;;;;;;19.00;99.90;;;;;;5069269;28;20088;-51
2021/06/29 04:04:42;;;;;;;;;;;19.00;99.90;;;;;;5069097;28;20034;-51
2021/06/29 04:07:09;;;;;;;;;;;19.00;99.90;;;;;;5069920;28;20038;-51
2021/06/29 04:09:37;;;;;;;;;;;19.10;99.90;;;;;;5069201;28;19993;-52
2021/06/29 04:12:04;;;;;;;;;;;19.10;99.90;;;;;;5068605;28;20005;-52
2021/06/29 04:14:30;;;;;;;;;;;19.10;99.90;;;;;;5068791;28;19992;-51
2021/06/29 04:16:55;;;;;;;;;;;19.10;99.90;;;;;;5074693;28;19989;-51
2021/06/29 04:19:21;;;;;;;;;;;19.20;99.90;;;;;;5089295;28;19984;-50
2021/06/29 04:21:46;;;;;;;;;;;19.20;99.90;;;;;;5088591;28;20129;-51
2021/06/29 04:24:12;;;;;;;;;;;19.20;99.90;;;;;;5086703;28;20032;-50
2021/06/29 04:26:38;;;;;;;;;;;19.20;99.90;;;;;;5088456;28;19988;-51
2021/06/29 04:29:04;;;;;;;;;;;19.10;99.90;;;;;;5087809;28;20064;-49
2021/06/29 04:31:30;;;;;;;;;;;19.00;99.90;;;;;;5087513;28;20092;-50
2021/06/29 04:33:56;;;;;;;;;;;18.90;99.90;;;;;;5087267;28;20047;-51
2021/06/29 04:36:23;;;;;;;;;;;18.90;99.90;;;;;;5087384;28;19985;-51
2021/06/29 04:38:48;;;;;;;;;;;18.80;99.90;;;;;;5086814;28;20199;-52
2021/06/29 04:41:14;;;;;;;;;;;18.70;99.90;;;;;;5075830;28;19992;-51
2021/06/29 04:43:43;;;;;;;;;;;18.60;99.90;;;;;;5067045;28;19981;-49
2021/06/29 04:46:08;;;;;;;;;;;18.60;99.90;;;;;;5067734;28;19985;-52
2021/06/29 04:48:38;;;;;;;;;;;18.50;99.90;;;;;;5066437;28;20373;-48
2021/06/29 04:51:04;;;;;;;;;;;18.50;99.90;;;;;;5066917;28;19985;-51
2021/06/29 04:53:30;;;;;;;;;;;18.50;99.90;;;;;;5066729;28;20009;-51
2021/06/29 04:55:55;;;;;;;;;;;18.60;99.90;;;;;;5067025;28;20481;-52
2021/06/29 04:58:21;;;;;;;;;;;18.60;99.90;;;;;;5066469;28;20032;-48
2021/06/29 05:00:50;;;;;;;;;;;18.70;99.90;;;;;;5066265;28;19981;-50
2021/06/29 05:03:15;;;;;;;;;;;18.70;99.90;;;;;;5082272;28;19989;-51
2021/06/29 05:05:41;;;;;;;;;;;18.70;99.90;;;;;;5086293;28;19984;-49
2021/06/29 05:08:07;;;;;;;;;;;18.70;99.90;;;;;;5087589;28;19988;-51
2021/06/29 05:10:33;;;;;;;;;;;18.70;99.90;;;;;;5086799;28;20035;-51
2021/06/29 05:12:59;;;;;;;;;;;18.80;99.90;;;;;;5072984;28;20005;-51
2021/06/29 05:15:25;;;;;;;;;;;18.80;99.90;;;;;;5066264;28;20083;-51
2021/06/29 05:17:51;;;;;;;;;;;18.60;99.90;;;;;;5065582;28;19993;-50
2021/06/29 05:20:16;;;;;;;;;;;18.70;99.90;;;;;;5065786;28;19990;-49
2021/06/29 05:22:43;;;;;;;;;;;18.70;99.90;;;;;;5066092;28;19985;-49
2021/06/29 05:25:09;;;;;;;;;;;18.90;99.90;;;;;;5066772;28;19989;-52
2021/06/29 05:27:38;;;;;;;;;;;18.90;99.90;;;;;;5065535;28;19993;-51
2021/06/29 05:30:04;;;;;;;;;;;19.00;99.90;;;;;;5066337;28;20375;-52
2021/06/29 05:32:30;;;;;;;;;;;19.10;99.90;;;;;;5065479;28;20518;-49
2021/06/29 05:34:56;;;;;;;;;;;19.00;99.90;;;;;;5065516;28;20095;-51
2021/06/29 05:37:22;;;;;;;;;;;19.00;99.90;;;;;;5072999;28;19989;-52
2021/06/29 05:39:47;;;;;;;;;;;19.10;99.90;;;;;;5077837;28;20476;-50
2021/06/29 05:42:13;;;;;;;;;;;19.10;99.90;;;;;;5069074;28;19996;-50
2021/06/29 05:44:38;;;;;;;;;;;19.20;99.90;;;;;;5078614;28;19984;-50
2021/06/29 05:47:07;;;;;;;;;;;19.20;99.90;;;;;;5069201;28;20001;-51
2021/06/29 05:49:32;;;;;;;;;;;19.10;99.90;;;;;;5066957;28;19993;-50
2021/06/29 05:51:58;;;;;;;;;;;18.90;99.90;;;;;;5067422;28;20082;-51
2021/06/29 05:54:25;;;;;;;;;;;18.90;99.90;;;;;;5067811;28;19989;-50
2021/06/29 05:56:50;;;;;;;;;;;18.80;99.90;;;;;;5066791;28;19989;-51
2021/06/29 05:59:16;;;;;;;;;;;18.80;99.90;;;;;;5067080;28;19997;-50
2021/06/29 06:01:42;;;;;;;;;;;18.60;99.90;;;;;;5076520;28;19989;-50
2021/06/29 06:04:07;;;;;;;;;;;18.50;99.90;;;;;;5068601;28;19985;-51
2021/06/29 06:06:34;;;;;;;;;;;18.50;99.90;;;;;;5070060;28;19989;-52
2021/06/29 06:08:59;;;;;;;;;;;18.50;99.90;;;;;;5078509;28;19985;-51
2021/06/29 06:11:25;;;;;;;;;;;18.50;99.90;;;;;;5069215;28;20000;-50
2021/06/29 06:13:50;;;;;;;;;;;18.60;99.90;;;;;;5080890;28;20004;-51
2021/06/29 06:16:16;;;;;;;;;;;18.60;99.90;;;;;;5072484;28;20046;-52
2021/06/29 06:18:43;;;;;;;;;;;18.70;99.90;;;;;;5068998;28;19993;-51
2021/06/29 06:21:09;;;;;;;;;;;18.80;99.90;;;;;;5086832;28;19981;-51
2021/06/29 06:23:34;;;;;;;;;;;18.90;99.90;;;;;;5073149;28;20042;-52
2021/06/29 06:26:00;;;;;;;;;;;18.80;99.90;;;;;;5070157;28;19985;-48
2021/06/29 06:28:25;;;;;;;;;;;18.70;99.90;;;;;;5078536;28;19989;-50
2021/06/29 06:30:51;;;;;;;;;;;18.60;99.90;;;;;;5070551;28;19995;-51
2021/06/29 06:33:19;;;;;;;;;;;18.60;99.90;;;;;;5080423;28;20041;-51
2021/06/29 06:35:45;;;;;;;;;;;18.40;99.90;;;;;;5070107;28;19993;-51
2021/06/29 06:38:11;;;;;;;;;;;18.20;99.90;;;;;;5067468;28;19989;-51
2021/06/29 06:40:37;;;;;;;;;;;18.30;99.90;;;;;;5077728;28;19992;-49
2021/06/29 06:43:03;;;;;;;;;;;18.30;99.90;;;;;;5071491;28;19996;-51
2021/06/29 06:45:28;;;;;;;;;;;18.30;99.90;;;;;;5065812;28;19985;-47
2021/06/29 06:47:54;;;;;;;;;;;18.40;99.90;;;;;;5066896;28;19997;-48
2021/06/29 06:50:22;;;;;;;;;;;18.40;99.90;;;;;;5069070;28;20032;-49
2021/06/29 06:52:48;;;;;;;;;;;18.50;99.90;;;;;;5066584;28;20628;-50
2021/06/29 06:55:14;;;;;;;;;;;18.50;99.90;;;;;;5066131;28;19984;-48
2021/06/29 06:57:41;;;;;;;;;;;18.50;99.90;;;;;;5066082;28;19981;-49
2021/06/29 07:00:07;;;;;;;;;;;18.50;99.90;;;;;;5065895;28;19995;-51
2021/06/29 07:02:33;;;;;;;;;;;18.50;99.90;;;;;;5065229;28;20000;-51
2021/06/29 07:04:59;;;;;;;;;;;18.50;99.90;;;;;;5073916;28;19988;-52
2021/06/29 07:07:24;;;;;;;;;;;18.60;99.90;;;;;;5086690;28;19989;-48
2021/06/29 07:09:50;;;;;;;;;;;18.70;99.90;;;;;;5066802;28;19985;-51
2021/06/29 07:12:15;;;;;;;;;;;18.80;99.90;;;;;;5065842;28;20102;-51
2021/06/29 07:14:41;;;;;;;;;;;18.90;99.90;;;;;;5071123;28;20681;-51
2021/06/29 07:17:07;;;;;;;;;;;19.10;99.90;;;;;;5065335;28;20019;-51
2021/06/29 07:19:33;;;;;;;;;;;19.20;99.90;;;;;;5078912;28;20091;-47
2021/06/29 07:21:58;;;;;;;;;;;19.30;99.90;;;;;;5068169;28;20083;-48
2021/06/29 07:24:24;;;;;;;;;;;19.40;99.90;;;;;;5068309;28;20080;-51
2021/06/29 07:26:49;;;;;;;;;;;19.40;99.90;;;;;;5068288;28;20024;-51
2021/06/29 07:29:15;;;;;;;;;;;19.20;99.90;;;;;;5068440;28;20008;-51
2021/06/29 07:31:41;;;;;;;;;;;19.30;99.90;;;;;;5067664;28;19993;-49
2021/06/29 07:34:06;;;;;;;;;;;19.40;99.90;;;;;;5068133;28;19992;-52
2021/06/29 07:36:32;;;;;;;;;;;19.50;99.90;;;;;;5068300;28;20205;-49
2021/06/29 07:38:57;;;;;;;;;;;19.50;99.90;;;;;;5068221;28;20039;-50
2021/06/29 07:41:23;;;;;;;;;;;19.60;99.90;;;;;;5068561;28;20092;-51
2021/06/29 07:43:49;;;;;;;;;;;19.60;99.90;;;;;;5067928;28;20530;-51
2021/06/29 07:46:14;;;;;;;;;;;19.70;99.90;;;;;;5068744;28;20346;-51
2021/06/29 07:48:41;;;;;;;;;;;19.80;99.90;;;;;;5067884;28;20463;-53
2021/06/29 07:51:09;;;;;;;;;;;19.80;99.90;;;;;;5068448;28;20527;-51
2021/06/29 07:53:35;;;;;;;;;;;20.00;99.90;;;;;;5068245;28;20009;-52
2021/06/29 07:56:02;;;;;;;;;;;20.10;99.90;;;;;;5067174;28;20700;-52
2021/06/29 07:58:28;;;;;;;;;;;20.20;99.90;;;;;;5068201;28;20075;-51
2021/06/29 08:00:54;;;;;;;;;;;20.10;99.90;;;;;;5067526;28;20080;-53
2021/06/29 08:03:20;;;;;;;;;;;20.10;99.90;;;;;;5068119;28;20348;-50
2021/06/29 08:05:46;;;;;;;;;;;20.00;99.90;;;;;;5067688;28;20017;-51
2021/06/29 08:08:13;;;;;;;;;;;20.10;99.90;;;;;;5068393;28;20016;-52
2021/06/29 08:10:38;;;;;;;;;;;20.10;99.90;;;;;;5067746;28;19988;-53
2021/06/29 08:13:05;;;;;;;;;;;20.10;99.90;;;;;;5069536;28;20012;-52
2021/06/29 08:15:31;;;;;;;;;;;19.90;99.90;;;;;;5066616;28;19993;-52
2021/06/29 08:17:57;;;;;;;;;;;19.90;99.90;;;;;;5072792;28;19996;-53
2021/06/29 08:20:23;;;;;;;;;;;20.00;99.90;;;;;;5072412;28;19994;-50
2021/06/29 08:22:50;;;;;;;;;;;20.00;99.90;;;;;;5081453;28;20043;-51
2021/06/29 08:25:16;;;;;;;;;;;20.00;99.90;;;;;;5073179;28;19988;-51
2021/06/29 08:27:43;;;;;;;;;;;20.00;99.90;;;;;;5066819;28;20012;-53
2021/06/29 08:30:09;;;;;;;;;;;20.00;99.90;;;;;;5069462;28;19993;-50
2021/06/29 08:32:37;;;;;;;;;;;19.90;99.90;;;;;;5081314;28;20027;-52
2021/06/29 08:35:05;;;;;;;;;;;20.00;99.90;;;;;;5080753;28;20398;-52
2021/06/29 08:37:30;;;;;;;;;;;20.10;99.90;;;;;;5085856;28;19985;-50
2021/06/29 08:39:57;;;;;;;;;;;20.10;99.90;;;;;;5072039;28;19993;-52
2021/06/29 08:42:22;;;;;;;;;;;20.10;99.90;;;;;;5068399;28;20000;-51
2021/06/29 08:44:49;;;;;;;;;;;20.20;99.90;;;;;;5084746;28;20197;-51
2021/06/29 08:47:15;;;;;;;;;;;20.20;99.90;;;;;;5088764;28;19985;-50
2021/06/29 08:49:41;;;;;;;;;;;20.30;99.90;;;;;;5087133;28;20011;-51
2021/06/29 08:52:08;;;;;;;;;;;20.40;99.90;;;;;;5087399;28;20004;-52
2021/06/29 08:54:34;;;;;;;;;;;20.20;99.90;;;;;;5089615;28;19985;-50
2021/06/29 08:57:02;;;;;;;;;;;20.20;99.90;;;;;;5083933;28;20497;-49
2021/06/29 08:59:27;;;;;;;;;;;20.20;99.90;;;;;;5084250;28;19989;-52
2021/06/29 09:01:53;;;;;;;;;;;20.30;99.90;;;;;;5088808;28;19993;-52
2021/06/29 09:04:37;;;;;;;;;;;20.30;99.90;;;;;;5080047;28;20378;-51
2021/06/29 09:07:16;;;;;;;;;;;20.20;99.90;;;;;;5068229;28;20401;-51
2021/06/29 09:09:46;;;;;;;;;;;20.40;99.90;;;;;;5070159;28;20471;-51
2021/06/29 09:12:11;;;;;;;;;;;20.60;99.90;;;;;;5069400;28;20009;-49
2021/06/29 09:14:39;;;;;;;;;;;20.60;99.90;;;;;;5067194;28;20463;-48
2021/06/29 09:17:22;;;;;;;;;;;20.70;99.90;;;;;;5068336;28;20411;-52
2021/06/29 09:19:49;;;;;;;;;;;20.90;99.90;;;;;;5077434;28;19991;-52
2021/06/29 09:22:31;;;;;;;;;;;20.80;99.90;;;;;;5070259;28;20012;-51
2021/06/29 09:24:58;;;;;;;;;;;20.70;99.90;;;;;;5067322;28;19988;-52
2021/06/29 09:27:40;;;;;;;;;;;20.60;99.90;;;;;;5070386;28;20050;-51
2021/06/29 09:30:26;;;;;;;;;;;20.60;99.90;;;;;;5070003;28;19993;-52
2021/06/29 09:32:51;;;;;;;;;;;20.50;99.90;;;;;;5067070;28;20112;-53
2021/06/29 09:35:17;;;;;;;;;;;20.50;99.90;;;;;;5068640;28;20083;-49
2021/06/29 09:37:46;;;;;;;;;;;20.40;99.90;;;;;;5085111;28;19992;-53
2021/06/29 09:40:12;;;;;;;;;;;20.30;99.90;;;;;;5087582;28;19985;-52
2021/06/29 09:42:37;;;;;;;;;;;20.20;99.90;;;;;;5087109;28;19985;-52
2021/06/29 09:45:04;;;;;;;;;;;20.20;99.90;;;;;;5087439;28;20027;-52
2021/06/29 09:47:30;;;;;;;;;;;20.20;99.90;;;;;;5087318;28;19990;-51
2021/06/29 09:49:56;;;;;;;;;;;20.20;99.90;;;;;;5087312;28;20051;-52
2021/06/29 09:52:34;;;;;;;;;;;20.20;99.90;;;;;;5087309;28;20095;-51
2021/06/29 09:55:00;;;;;;;;;;;20.20;99.90;;;;;;5083198;28;19988;-52
2021/06/29 09:57:25;;;;;;;;;;;20.40;99.90;;;;;;5087866;28;20063;-53
2021/06/29 09:59:52;;;;;;;;;;;20.50;99.90;;;;;;5076504;28;20000;-52
2021/06/29 10:02:29;;;;;;;;;;;20.70;99.90;;;;;;5080971;28;20067;-52
2021/06/29 10:05:13;;;;;;;;;;;20.80;99.90;;;;;;5086889;28;20083;-50
2021/06/29 10:07:39;;;;;;;;;;;21.00;99.90;;;;;;5077095;28;19989;-51
2021/06/29 10:10:15;;;;;;;;;;;21.00;99.90;;;;;;5067592;28;20000;-53
2021/06/29 10:12:40;;;;;;;;;;;21.10;99.90;;;;;;5086151;28;20384;-52
2021/06/29 10:15:06;;;;;;;;;;;21.10;99.90;;;;;;5087428;28;19985;-53
2021/06/29 10:17:33;;;;;;;;;;;21.20;99.90;;;;;;5087698;28;19988;-49
2021/06/29 10:20:12;;;;;;;;;;;21.10;99.90;;;;;;5085786;28;20462;-53
2021/06/29 10:22:38;;;;;;;;;;;21.10;99.90;;;;;;5071665;28;19985;-52
2021/06/29 10:25:04;;;;;;;;;;;21.40;99.90;;;;;;5067205;28;19985;-53
2021/06/29 10:27:30;;;;;;;;;;;21.50;99.90;;;;;;5073719;28;20038;-51
2021/06/29 10:29:56;;;;;;;;;;;21.40;99.90;;;;;;5064577;28;20036;-53
2021/06/29 10:32:25;;;;;;;;;;;21.50;99.90;;;;;;5066747;28;20047;-51
2021/06/29 10:34:51;;;;;;;;;;;21.50;99.90;;;;;;5066250;28;19992;-52
2021/06/29 10:37:16;;;;;;;;;;;21.60;99.90;;;;;;5065505;28;19989;-52
2021/06/29 10:39:43;;;;;;;;;;;21.60;99.90;;;;;;5066270;28;19981;-52
2021/06/29 10:42:29;;;;;;;;;;;21.40;99.90;;;;;;5066638;28;19988;-52
2021/06/29 10:44:54;;;;;;;;;;;21.60;99.90;;;;;;5083521;28;20615;-53
2021/06/29 10:47:23;;;;;;;;;;;21.60;99.90;;;;;;5084144;28;19985;-49
2021/06/29 10:49:52;;;;;;;;;;;21.80;99.90;;;;;;5099909;28;20321;-53
2021/06/29 10:52:23;;;;;;;;;;;21.60;99.90;;;;;;5104463;28;20556;-53
2021/06/29 10:54:58;;;;;;;;;;;21.60;99.90;;;;;;5103866;28;19991;-52
2021/06/29 10:57:24;;;;;;;;;;;21.60;99.90;;;;;;5096477;28;19992;-53
2021/06/29 10:59:51;;;;;;;;;;;21.70;99.90;;;;;;5087310;28;19985;-52
2021/06/29 11:02:28;;;;;;;;;;;21.70;99.90;;;;;;5070995;28;20020;-53
2021/06/29 11:04:55;;;;;;;;;;;21.60;99.90;;;;;;5105952;28;19984;-52
2021/06/29 11:07:27;;;;;;;;;;;21.60;99.90;;;;;;5106357;28;20035;-52
2021/06/29 11:09:52;;;;;;;;;;;21.60;99.90;;;;;;5097409;28;19993;-53
2021/06/29 11:12:23;;;;;;;;;;;21.60;99.90;;;;;;5093660;28;20058;-53
2021/06/29 11:14:50;;;;;;;;;;;21.60;99.90;;;;;;5105177;28;20039;-53
2021/06/29 11:17:16;;;;;;;;;;;21.70;99.90;;;;;;5081378;28;19996;-51
2021/06/29 11:20:00;;;;;;;;;;;21.50;99.90;;;;;;5081535;28;20458;-52
2021/06/29 11:22:44;;;;;;;;;;;21.60;99.90;;;;;;5069738;28;20409;-52
2021/06/29 11:25:10;;;;;;;;;;;21.50;99.90;;;;;;5075687;28;19989;-53
2021/06/29 11:27:55;;;;;;;;;;;21.60;99.90;;;;;;5089492;28;19988;-54
2021/06/29 11:30:39;;;;;;;;;;;21.60;99.90;;;;;;5089970;28;19981;-53
2021/06/29 11:33:23;;;;;;;;;;;21.70;99.90;;;;;;5088597;28;20009;-53
2021/06/29 11:35:48;;;;;;;;;;;21.90;99.90;;;;;;5089192;28;19985;-51
2021/06/29 11:38:14;;;;;;;;;;;21.90;99.90;;;;;;5082823;28;20000;-53
2021/06/29 11:40:39;;;;;;;;;;;21.90;99.90;;;;;;5089216;28;19989;-53
2021/06/29 11:43:09;;;;;;;;;;;21.90;99.90;;;;;;5082427;28;19992;-51
2021/06/29 11:45:35;;;;;;;;;;;22.00;99.90;;;;;;5090374;28;19989;-52
2021/06/29 11:48:00;;;;;;;;;;;22.00;99.90;;;;;;5089673;28;19992;-52
2021/06/29 11:50:26;;;;;;;;;;;22.10;99.90;;;;;;5089154;28;19996;-53
2021/06/29 11:52:54;;;;;;;;;;;22.20;99.90;;;;;;5071863;28;20008;-52
2021/06/29 11:55:20;;;;;;;;;;;22.60;99.90;;;;;;5068295;28;19990;-54
2021/06/29 11:57:49;;;;;;;;;;;23.10;99.90;;;;;;5067619;28;19985;-53
2021/06/29 12:00:29;;;;;;;;;;;23.20;99.90;;;;;;5068177;28;20032;-54
2021/06/29 12:02:57;;;;;;;;;;;23.20;99.90;;;;;;5067864;28;19992;-52
2021/06/29 12:05:25;;;;;;;;;;;23.30;99.90;;;;;;5067809;28;20518;-53
2021/06/29 12:07:50;;;;;;;;;;;23.30;99.90;;;;;;5067553;28;19981;-52
2021/06/29 12:10:18;;;;;;;;;;;23.40;99.90;;;;;;5067973;28;19985;-53
2021/06/29 12:12:51;;;;;;;;;;;23.50;99.90;;;;;;5066953;28;20052;-54
2021/06/29 12:15:18;;;;;;;;;;;23.50;99.90;;;;;;5067477;28;20420;-52
2021/06/29 12:17:46;;;;;;;;;;;23.50;99.90;;;;;;5066467;28;20092;-53
2021/06/29 12:20:12;;;;;;;;;;;23.50;99.90;;;;;;5067658;28;20025;-53
2021/06/29 12:22:39;;;;;;;;;;;23.50;99.90;;;;;;5067520;28;19981;-52
2021/06/29 12:25:05;;;;;;;;;;;23.50;99.90;;;;;;5068061;28;20516;-54
2021/06/29 12:27:31;;;;;;;;;;;23.60;99.90;;;;;;5067100;28;19985;-53
2021/06/29 12:29:57;;;;;;;;;;;24.10;99.90;;;;;;5067650;28;20382;-54
2021/06/29 12:32:25;;;;;;;;;;;24.40;99.90;;;;;;5067473;28;20486;-54
2021/06/29 12:35:09;;;;;;;;;;;24.40;99.90;;;;;;5067467;28;19987;-53
2021/06/29 12:37:54;;;;;;;;;;;24.60;99.90;;;;;;5067653;28;19988;-54
2021/06/29 12:40:20;;;;;;;;;;;24.90;99.90;;;;;;5067247;28;19982;-52
2021/06/29 12:42:45;;;;;;;;;;;25.10;99.90;;;;;;5066700;28;19992;-53
2021/06/29 12:45:11;;;;;;;;;;;25.00;99.90;;;;;;5067030;28;20028;-54
2021/06/29 12:47:37;;;;;;;;;;;24.90;99.90;;;;;;5066718;28;19997;-52
2021/06/29 12:50:07;;;;;;;;;;;24.80;99.90;;;;;;5067768;28;19992;-54
2021/06/29 12:52:33;;;;;;;;;;;24.70;99.90;;;;;;5067470;28;20514;-54
2021/06/29 12:55:16;;;;;;;;;;;24.70;99.90;;;;;;5066894;28;20028;-53
2021/06/29 12:57:42;;;;;;;;;;;24.60;99.90;;;;;;5066729;28;20024;-53
2021/06/29 13:00:10;;;;;;;;;;;24.20;99.90;;;;;;5066812;28;20025;-53
2021/06/29 13:02:41;;;;;;;;;;;24.00;99.90;;;;;;5067223;28;19996;-54
2021/06/29 13:05:17;;;;;;;;;;;24.40;99.90;;;;;;5066720;28;20055;-54
2021/06/29 13:07:42;;;;;;;;;;;24.80;99.90;;;;;;5066573;28;20440;-55
2021/06/29 13:10:08;;;;;;;;;;;25.10;99.90;;;;;;5066599;28;19981;-54
2021/06/29 13:12:34;;;;;;;;;;;25.40;99.90;;;;;;5066182;28;20047;-53
2021/06/29 13:15:02;;;;;;;;;;;25.70;99.90;;;;;;5066241;28;20068;-54
2021/06/29 13:17:27;;;;;;;;;;;26.00;99.90;;;;;;5066783;28;19985;-54
2021/06/29 13:20:05;;;;;;;;;;;26.30;99.90;;;;;;5086477;28;20050;-54
2021/06/29 13:22:38;;;;;;;;;;;26.20;99.90;;;;;;5085237;28;19981;-53
2021/06/29 13:25:04;;;;;;;;;;;26.60;99.90;;;;;;5086849;28;20079;-54
2021/06/29 13:27:31;;;;;;;;;;;26.40;99.90;;;;;;5085819;28;20091;-53
2021/06/29 13:29:58;;;;;;;;;;;26.30;99.90;;;;;;5086704;28;20393;-55
2021/06/29 13:32:23;;;;;;;;;;;26.40;99.90;;;;;;5086311;28;20009;-55
2021/06/29 13:34:58;;;;;;;;;;;26.30;99.90;;;;;;5084861;28;20348;-55
2021/06/29 13:37:26;;;;;;;;;;;26.40;99.90;;;;;;5086491;28;19980;-54
2021/06/29 13:39:53;;;;;;;;;;;26.40;99.90;;;;;;5086492;28;20355;-54
2021/06/29 13:42:19;;;;;;;;;;;26.20;99.90;;;;;;5086045;28;20006;-54
2021/06/29 13:45:05;;;;;;;;;;;26.00;99.90;;;;;;5085797;28;20035;-54
2021/06/29 13:47:31;;;;;;;;;;;26.20;99.90;;;;;;5077449;28;20049;-53
2021/06/29 13:50:01;;;;;;;;;;;26.40;99.90;;;;;;5069221;28;20002;-54
2021/06/29 13:52:27;;;;;;;;;;;26.60;99.90;;;;;;5066136;28;20493;-54
2021/06/29 13:55:03;;;;;;;;;;;26.40;99.90;;;;;;5064960;28;19989;-54
2021/06/29 13:57:28;;;;;;;;;;;25.80;99.90;;;;;;5064970;28;19995;-54
2021/06/29 13:59:54;;;;;;;;;;;25.40;99.90;;;;;;5065438;28;19985;-54
2021/06/29 14:02:29;;;;;;;;;;;25.10;99.90;;;;;;5071007;28;19992;-56
2021/06/29 14:04:55;;;;;;;;;;;24.80;99.90;;;;;;5075694;28;20075;-54
2021/06/29 14:07:21;;;;;;;;;;;24.60;99.90;;;;;;5073837;28;20073;-53
2021/06/29 14:09:47;;;;;;;;;;;24.50;99.90;;;;;;5065438;28;19994;-54
2021/06/29 14:12:24;;;;;;;;;;;24.40;99.90;;;;;;5065680;28;20425;-53
2021/06/29 14:14:50;;;;;;;;;;;24.00;99.90;;;;;;5065165;28;19995;-53
2021/06/29 14:17:16;;;;;;;;;;;23.30;99.90;;;;;;5065183;28;20482;-54